createdAt,value
2019-01-12T00:00:11.972Z,101790.86
2019-01-12T00:02:40.540Z,101786.11
2019-01-12T00:05:09.337Z,101792.61
2019-01-12T00:07:38.005Z,101791.75
2019-01-12T00:10:08.887Z,101787.89
2019-01-12T00:12:37.374Z,101788.74
2019-01-12T00:15:07.785Z,101790.86
2019-01-12T00:17:36.191Z,101783.91
2019-01-12T00:20:07.096Z,101786.95
2019-01-12T00:22:35.593Z,101790.38
2019-01-12T00:25:05.971Z,101789.03
2019-01-12T00:27:36.218Z,101791.23
2019-01-12T00:30:07.676Z,101786.92
2019-01-12T00:32:36.160Z,101786.52
2019-01-12T00:35:06.368Z,101786.18
2019-01-12T00:37:34.798Z,101778.81
2019-01-12T00:40:03.477Z,101779.27
2019-01-12T00:42:31.987Z,101770.56
2019-01-12T00:45:03.273Z,101779.19
2019-01-12T00:47:32.786Z,101769.64
2019-01-12T00:50:01.352Z,101770.94
2019-01-12T00:52:29.783Z,101771.79
2019-01-12T00:54:58.253Z,101767.45
2019-01-12T00:57:26.749Z,101768.34
2019-01-12T00:59:55.187Z,101771.34
2019-01-12T01:02:23.608Z,101758.70
2019-01-12T01:04:52.175Z,101770.79
2019-01-12T01:07:28.296Z,101765.10
2019-01-12T01:09:56.901Z,101767.70
2019-01-12T01:12:25.337Z,101764.17
2019-01-12T01:14:54.003Z,101765.84
2019-01-12T01:17:22.580Z,101761.01
2019-01-12T01:19:51.080Z,101764.05
2019-01-12T01:22:19.620Z,101766.25
2019-01-12T01:24:48.118Z,101765.36
2019-01-12T01:27:16.690Z,101765.36
2019-01-12T01:29:45.228Z,101771.90
2019-01-12T01:32:13.755Z,101765.44
2019-01-12T01:34:42.747Z,101768.41
2019-01-12T01:37:11.303Z,101759.75
2019-01-12T01:39:39.886Z,101767.55
2019-01-12T01:42:08.425Z,101761.05
2019-01-12T01:44:36.837Z,101761.05
2019-01-12T01:47:05.430Z,101764.50
2019-01-12T01:49:33.872Z,101764.50
2019-01-12T01:52:02.562Z,101757.11
2019-01-12T01:54:31.177Z,101766.58
2019-01-12T01:56:59.751Z,101759.19
2019-01-12T01:59:28.208Z,101756.95
2019-01-12T02:01:56.828Z,101756.47
2019-01-12T02:04:25.375Z,101753.45
2019-01-12T02:06:53.894Z,101762.16
2019-01-12T02:09:22.489Z,101760.00
2019-01-12T02:11:51.049Z,101749.64
2019-01-12T02:14:19.647Z,101747.03
2019-01-12T02:16:48.135Z,101741.39
2019-01-12T02:19:16.682Z,101736.59
2019-01-12T02:21:45.171Z,101741.39
2019-01-12T02:24:13.705Z,101739.64
2019-01-12T02:26:42.197Z,101744.39
2019-01-12T02:29:10.758Z,101747.00
2019-01-12T02:31:39.334Z,101741.80
2019-01-12T02:34:07.936Z,101740.05
2019-01-12T02:36:39.056Z,101743.09
2019-01-12T02:39:08.308Z,101734.92
2019-01-12T02:41:36.762Z,101732.28
2019-01-12T02:44:05.416Z,101727.94
2019-01-12T02:46:33.871Z,101734.92
2019-01-12T02:49:02.297Z,101729.23
2019-01-12T02:51:31.328Z,101727.49
2019-01-12T02:53:59.846Z,101730.09
2019-01-12T02:56:28.441Z,101724.89
2019-01-12T02:58:56.972Z,101728.80
2019-01-12T03:01:25.475Z,101724.03
2019-01-12T03:03:53.894Z,101717.57
2019-01-12T03:06:22.504Z,101718.83
2019-01-12T03:08:50.935Z,101719.31
2019-01-12T03:11:19.510Z,101720.21
2019-01-12T03:13:48.079Z,101716.72
2019-01-12T03:16:16.674Z,101707.62
2019-01-12T03:18:45.087Z,101707.58
2019-01-12T03:21:13.535Z,101707.09
2019-01-12T03:23:41.984Z,101694.09
2019-01-12T03:26:10.504Z,101688.86
2019-01-12T03:28:39.131Z,101684.06
2019-01-12T03:31:07.624Z,101687.95
2019-01-12T03:33:36.176Z,101689.27
2019-01-12T03:36:04.739Z,101689.27
2019-01-12T03:38:33.265Z,101687.59
2019-01-12T03:41:01.676Z,101694.09
2019-01-12T03:43:30.126Z,101681.94
2019-01-12T03:45:58.692Z,101671.91
2019-01-12T03:48:27.211Z,101675.03
2019-01-12T03:50:55.638Z,101673.29
2019-01-12T03:53:24.200Z,101669.87
2019-01-12T03:55:52.675Z,101670.69
2019-01-12T03:58:21.287Z,101675.48
2019-01-12T04:00:49.784Z,101666.78
2019-01-12T04:03:18.374Z,101659.88
2019-01-12T04:05:46.861Z,101664.22
2019-01-12T04:08:15.313Z,101654.23
2019-01-12T04:10:43.801Z,101655.94
2019-01-12T04:13:12.348Z,101650.66
2019-01-12T04:15:40.843Z,101655.01
2019-01-12T04:18:09.347Z,101651.11
2019-01-12T04:20:37.831Z,101652.86
2019-01-12T04:23:06.248Z,101642.86
2019-01-12T04:25:34.849Z,101645.50
2019-01-12T04:28:03.288Z,101643.79
2019-01-12T04:30:31.729Z,101637.70
2019-01-12T04:33:00.152Z,101641.19
2019-01-12T04:35:28.611Z,101637.66
2019-01-12T04:37:57.052Z,101643.72
2019-01-12T04:40:25.484Z,101647.20
2019-01-12T04:42:53.909Z,101642.42
2019-01-12T04:45:22.466Z,101645.43
2019-01-12T04:47:50.916Z,101650.66
2019-01-12T04:50:19.603Z,101643.72
2019-01-12T04:52:48.041Z,101642.80
2019-01-12T04:55:16.831Z,101648.44
2019-01-12T04:57:45.344Z,101641.45
2019-01-12T05:00:15.864Z,101639.75
2019-01-12T05:02:44.458Z,101632.39
2019-01-12T05:05:13.087Z,101639.75
2019-01-12T05:07:41.809Z,101633.66
2019-01-12T05:10:11.991Z,101637.11
2019-01-12T05:12:40.410Z,101631.84
2019-01-12T05:15:13.864Z,101630.58
2019-01-12T05:17:42.452Z,101628.38
2019-01-12T05:20:18.599Z,101627.53
2019-01-12T05:22:47.304Z,101631.84
2019-01-12T05:25:16.259Z,101630.54
2019-01-12T05:27:44.861Z,101634.40
2019-01-12T05:30:17.109Z,101630.95
2019-01-12T05:32:45.812Z,101631.39
2019-01-12T05:35:14.301Z,101623.19
2019-01-12T05:37:42.763Z,101616.69
2019-01-12T05:40:11.551Z,101621.03
2019-01-12T05:42:40.012Z,101616.69
2019-01-12T05:45:10.697Z,101623.19
2019-01-12T05:47:39.498Z,101619.70
2019-01-12T05:50:10.256Z,101620.55
2019-01-12T05:52:39.008Z,101613.20
2019-01-12T05:55:08.525Z,101604.55
2019-01-12T05:57:37.123Z,101605.05
2019-01-12T06:00:11.264Z,101608.95
2019-01-12T06:02:39.704Z,101607.66
2019-01-12T06:05:08.374Z,101606.36
2019-01-12T06:07:37.072Z,101599.45
2019-01-12T06:10:08.624Z,101602.05
2019-01-12T06:12:37.094Z,101602.49
2019-01-12T06:15:08.523Z,101601.64
2019-01-12T06:17:37.012Z,101607.69
2019-01-12T06:20:08.700Z,101606.84
2019-01-12T06:22:37.293Z,101602.49
2019-01-12T06:25:05.961Z,101598.59
2019-01-12T06:27:34.401Z,101596.47
2019-01-12T06:30:07.131Z,101596.47
2019-01-12T06:32:35.644Z,101596.47
2019-01-12T06:35:05.128Z,101589.48
2019-01-12T06:37:33.556Z,101582.95
2019-01-12T06:40:02.034Z,101579.02
2019-01-12T06:42:30.537Z,101576.84
2019-01-12T06:44:59.106Z,101566.88
2019-01-12T06:47:27.541Z,101559.55
2019-01-12T06:49:55.984Z,101559.55
2019-01-12T06:52:24.466Z,101558.23
2019-01-12T06:54:52.947Z,101556.00
2019-01-12T06:57:21.346Z,101549.50
2019-01-12T06:59:49.791Z,101552.10
2019-01-12T07:02:18.206Z,101551.28
2019-01-12T07:04:46.664Z,101548.27
2019-01-12T07:07:15.091Z,101552.61
2019-01-12T07:09:43.543Z,101548.23
2019-01-12T07:12:11.959Z,101542.15
2019-01-12T07:14:40.483Z,101547.34
2019-01-12T07:17:09.023Z,101544.75
2019-01-12T07:19:37.557Z,101543.04
2019-01-12T07:22:06.151Z,101531.34
2019-01-12T07:24:34.659Z,101535.65
2019-01-12T07:27:03.100Z,101526.11
2019-01-12T07:29:31.566Z,101526.14
2019-01-12T07:32:00.039Z,101525.22
2019-01-12T07:34:28.538Z,101524.73
2019-01-12T07:36:57.063Z,101511.71
2019-01-12T07:39:25.577Z,101508.67
2019-01-12T07:41:54.030Z,101502.58
2019-01-12T07:44:22.491Z,101500.42
2019-01-12T07:46:51.075Z,101487.43
2019-01-12T07:49:19.516Z,101485.75
2019-01-12T07:51:47.963Z,101484.86
2019-01-12T07:54:16.426Z,101489.65
2019-01-12T07:56:44.897Z,101482.27
2019-01-12T07:59:13.328Z,101468.85
2019-01-12T08:01:41.939Z,101486.64
2019-01-12T08:04:10.370Z,101488.79
2019-01-12T08:06:38.911Z,101481.44
2019-01-12T08:09:08.928Z,101478.80
2019-01-12T08:11:37.347Z,101469.74
2019-01-12T08:14:05.868Z,101460.20
2019-01-12T08:16:34.463Z,101466.73
2019-01-12T08:19:02.978Z,101459.81
2019-01-12T08:21:31.393Z,101462.00
2019-01-12T08:23:59.869Z,101462.50
2019-01-12T08:26:31.352Z,101449.95
2019-01-12T08:28:58.453Z,101451.69
2019-01-12T08:31:26.869Z,101439.98
2019-01-12T08:33:55.388Z,101431.36
2019-01-12T08:36:23.807Z,101430.89
2019-01-12T08:38:52.253Z,101430.45
2019-01-12T08:41:20.687Z,101451.69
2019-01-12T08:43:49.144Z,101456.45
2019-01-12T08:46:17.713Z,101457.33
2019-01-12T08:48:46.197Z,101474.27
2019-01-12T08:51:14.698Z,101477.31
2019-01-12T08:53:43.180Z,101465.61
2019-01-12T08:56:11.677Z,101456.06
2019-01-12T08:58:40.234Z,101443.06
2019-01-12T09:01:08.800Z,101438.33
2019-01-12T09:03:37.247Z,101433.98
2019-01-12T09:06:06.245Z,101418.86
2019-01-12T09:08:34.756Z,101410.58
2019-01-12T09:11:03.343Z,101401.52
2019-01-12T09:13:31.835Z,101401.98
2019-01-12T09:16:00.396Z,101382.09
2019-01-12T09:18:28.877Z,101379.95
2019-01-12T09:20:57.336Z,101376.07
2019-01-12T09:23:25.858Z,101392.98
2019-01-12T09:25:54.399Z,101395.16
2019-01-12T09:28:23.055Z,101397.79
2019-01-12T09:30:51.633Z,101387.41
2019-01-12T09:33:20.126Z,101397.79
2019-01-12T09:35:48.727Z,101383.06
2019-01-12T09:38:17.227Z,101368.78
2019-01-12T09:40:45.769Z,101372.30
2019-01-12T09:43:14.769Z,101369.70
2019-01-12T09:45:43.245Z,101356.27
2019-01-12T09:48:12.242Z,101363.19
2019-01-12T09:50:40.750Z,101342.35
2019-01-12T09:53:09.193Z,101346.25
2019-01-12T09:55:37.615Z,101338.48
2019-01-12T09:58:06.228Z,101332.38
2019-01-12T10:00:34.660Z,101338.89
2019-01-12T10:03:03.192Z,101342.77
2019-01-12T10:05:31.632Z,101335.41
2019-01-12T10:08:00.102Z,101322.41
2019-01-12T10:10:28.551Z,101315.89
2019-01-12T10:12:57.179Z,101321.10
2019-01-12T10:15:25.801Z,101298.55
2019-01-12T10:17:54.233Z,101294.64
2019-01-12T10:20:22.851Z,101291.59
2019-01-12T10:22:51.334Z,101288.58
2019-01-12T10:25:20.024Z,101285.55
2019-01-12T10:27:48.443Z,101289.05
2019-01-12T10:30:19.697Z,101290.35
2019-01-12T10:32:48.195Z,101288.60
2019-01-12T10:35:16.900Z,101278.23
2019-01-12T10:37:45.582Z,101286.06
2019-01-12T10:40:16.475Z,101297.77
2019-01-12T10:42:45.164Z,101281.30
2019-01-12T10:45:15.962Z,101276.96
2019-01-12T10:47:44.836Z,101263.08
2019-01-12T10:50:19.056Z,101260.05
2019-01-12T10:52:47.761Z,101261.34
2019-01-12T10:55:16.504Z,101254.41
2019-01-12T10:57:44.984Z,101243.14
2019-01-12T11:00:16.871Z,101244.00
2019-01-12T11:02:45.589Z,101241.02
2019-01-12T11:05:14.157Z,101225.83
2019-01-12T11:07:42.758Z,101230.18
2019-01-12T11:10:13.065Z,101225.82
2019-01-12T11:12:41.644Z,101229.69
2019-01-12T11:15:13.784Z,101217.53
2019-01-12T11:17:42.476Z,101217.98
2019-01-12T11:20:11.456Z,101214.08
2019-01-12T11:22:40.145Z,101212.36
2019-01-12T11:25:11.802Z,101211.06
2019-01-12T11:27:40.467Z,101205.44
2019-01-12T11:30:11.889Z,101217.16
2019-01-12T11:32:40.427Z,101190.26
2019-01-12T11:35:10.379Z,101179.83
2019-01-12T11:37:39.075Z,101188.07
2019-01-12T11:40:13.255Z,101176.39
2019-01-12T11:42:41.974Z,101166.42
2019-01-12T11:45:10.647Z,101168.61
2019-01-12T11:47:39.117Z,101167.73
2019-01-12T11:50:10.655Z,101161.69
2019-01-12T11:52:39.172Z,101145.22
2019-01-12T11:55:11.171Z,101141.30
2019-01-12T11:57:39.775Z,101136.53
2019-01-12T12:00:25.847Z,101124.41
2019-01-12T12:02:54.759Z,101119.20
2019-01-12T12:05:23.727Z,101108.75
2019-01-12T12:07:52.943Z,101114.41
2019-01-12T12:10:21.883Z,101097.91
2019-01-12T12:12:50.387Z,101090.97
2019-01-12T12:15:21.916Z,101075.38
2019-01-12T12:17:50.406Z,101087.91
2019-01-12T12:20:25.922Z,101083.16
2019-01-12T12:22:54.651Z,101069.25
2019-01-12T12:25:23.261Z,101069.25
2019-01-12T12:27:51.787Z,101052.77
2019-01-12T12:30:25.721Z,101053.66
2019-01-12T12:32:54.487Z,101045.38
2019-01-12T12:35:23.012Z,101032.38
2019-01-12T12:37:52.700Z,101040.63
2019-01-12T12:40:22.647Z,101025.45
2019-01-12T12:42:51.139Z,101014.16
2019-01-12T12:45:25.560Z,101023.72
2019-01-12T12:47:54.130Z,101008.55
2019-01-12T12:50:22.672Z,101013.31
2019-01-12T12:52:51.132Z,101013.73
2019-01-12T12:55:19.932Z,100997.27
2019-01-12T12:57:48.423Z,100984.70
2019-01-12T13:00:22.612Z,100979.92
2019-01-12T13:02:51.199Z,100970.41
2019-01-12T13:05:19.824Z,100974.75
2019-01-12T13:07:48.450Z,100963.45
2019-01-12T13:10:19.303Z,100966.48
2019-01-12T13:12:47.914Z,100962.16
2019-01-12T13:15:16.704Z,100954.78
2019-01-12T13:17:45.426Z,100954.78
2019-01-12T13:20:16.383Z,100948.27
2019-01-12T13:22:45.007Z,100947.41
2019-01-12T13:25:13.641Z,100937.45
2019-01-12T13:27:42.299Z,100931.41
2019-01-12T13:30:16.621Z,100933.53
2019-01-12T13:32:45.345Z,100930.95
2019-01-12T13:35:14.035Z,100934.85
2019-01-12T13:37:42.752Z,100936.57
2019-01-12T13:40:14.233Z,100933.97
2019-01-12T13:42:43.238Z,100928.77
2019-01-12T13:45:14.684Z,100923.56
2019-01-12T13:47:43.223Z,100918.81
2019-01-12T13:50:14.273Z,100917.50
2019-01-12T13:52:42.844Z,100911.89
2019-01-12T13:55:13.357Z,100907.54
2019-01-12T13:57:47.325Z,100905.84
2019-01-12T14:00:18.661Z,100906.69
2019-01-12T14:02:47.464Z,100902.78
2019-01-12T14:05:15.930Z,100890.20
2019-01-12T14:07:44.381Z,100883.70
2019-01-12T14:10:16.121Z,100875.91
2019-01-12T14:12:44.596Z,100883.70
2019-01-12T14:15:20.281Z,100886.30
2019-01-12T14:17:48.871Z,100888.47
2019-01-12T14:20:22.850Z,100879.80
2019-01-12T14:22:51.332Z,100876.34
2019-01-12T14:25:19.859Z,100878.06
2019-01-12T14:27:54.212Z,100872.45
2019-01-12T14:30:20.030Z,100866.82
2019-01-12T14:32:48.793Z,100855.09
2019-01-12T14:35:18.585Z,100863.78
2019-01-12T14:37:47.253Z,100847.72
2019-01-12T14:40:18.120Z,100839.08
2019-01-12T14:42:46.796Z,100829.95
2019-01-12T14:45:18.100Z,100845.98
2019-01-12T14:47:46.614Z,100836.47
2019-01-12T14:50:15.203Z,100838.64
2019-01-12T14:52:43.774Z,100844.69
2019-01-12T14:55:15.379Z,100841.23
2019-01-12T14:57:44.013Z,100839.06
2019-01-12T15:00:17.819Z,100832.55
2019-01-12T15:02:46.456Z,100835.59
2019-01-12T15:05:17.536Z,100838.61
2019-01-12T15:07:46.551Z,100832.56
2019-01-12T15:10:17.117Z,100832.58
2019-01-12T15:12:46.010Z,100835.59
2019-01-12T15:15:16.312Z,100843.41
2019-01-12T15:17:44.898Z,100845.13
2019-01-12T15:20:18.712Z,100836.87
2019-01-12T15:22:47.287Z,100832.14
2019-01-12T15:25:15.869Z,100834.30
2019-01-12T15:27:44.538Z,100831.25
2019-01-12T15:30:16.047Z,100835.59
2019-01-12T15:32:44.551Z,100836.89
2019-01-12T15:35:13.205Z,100828.21
2019-01-12T15:37:43.386Z,100839.05
2019-01-12T15:40:17.200Z,100839.08
2019-01-12T15:42:45.787Z,100837.75
2019-01-12T15:45:19.610Z,100835.59
2019-01-12T15:47:48.123Z,100836.47
2019-01-12T15:50:18.693Z,100835.14
2019-01-12T15:52:47.228Z,100836.47
2019-01-12T15:55:15.807Z,100836.87
2019-01-12T15:57:44.237Z,100824.31
2019-01-12T16:00:20.924Z,100819.96
2019-01-12T16:02:49.467Z,100826.02
2019-01-12T16:05:17.966Z,100806.06
2019-01-12T16:07:46.693Z,100800.88
2019-01-12T16:10:17.415Z,100815.62
2019-01-12T16:12:45.922Z,100812.14
2019-01-12T16:15:17.362Z,100813.00
2019-01-12T16:17:46.017Z,100809.52
2019-01-12T16:20:17.505Z,100797.82
2019-01-12T16:22:46.050Z,100804.34
2019-01-12T16:25:14.743Z,100801.73
2019-01-12T16:27:43.277Z,100804.34
2019-01-12T16:30:17.656Z,100796.95
2019-01-12T16:32:46.172Z,100798.66
2019-01-12T16:35:15.552Z,100799.97
2019-01-12T16:37:44.346Z,100803.02
2019-01-12T16:40:15.734Z,100796.94
2019-01-12T16:42:44.484Z,100792.62
2019-01-12T16:45:13.198Z,100798.24
2019-01-12T16:47:41.630Z,100795.22
2019-01-12T16:50:10.140Z,100790.00
2019-01-12T16:52:38.614Z,100799.53
2019-01-12T16:55:10.296Z,100789.55
2019-01-12T16:57:38.736Z,100789.14
2019-01-12T17:00:10.251Z,100786.09
2019-01-12T17:02:38.807Z,100791.72
2019-01-12T17:05:07.396Z,100784.79
2019-01-12T17:07:36.700Z,100783.06
2019-01-12T17:10:08.225Z,100780.88
2019-01-12T17:12:36.717Z,100784.79
2019-01-12T17:15:08.083Z,100781.73
2019-01-12T17:17:36.665Z,100778.25
2019-01-12T17:20:08.151Z,100770.03
2019-01-12T17:22:36.606Z,100766.54
2019-01-12T17:25:06.404Z,100764.39
2019-01-12T17:27:34.938Z,100767.00
2019-01-12T17:30:04.234Z,100778.27
2019-01-12T17:32:32.698Z,100776.11
2019-01-12T17:35:01.192Z,100765.70
2019-01-12T17:37:29.651Z,100759.61
2019-01-12T17:39:58.101Z,100757.01
2019-01-12T17:42:26.565Z,100752.22
2019-01-12T17:44:55.051Z,100753.10
2019-01-12T17:47:23.521Z,100754.39
2019-01-12T17:49:52.035Z,100749.65
2019-01-12T17:52:20.553Z,100765.23
2019-01-12T17:54:49.025Z,100757.44
2019-01-12T17:57:17.517Z,100760.94
2019-01-12T17:59:45.943Z,100751.82
2019-01-12T18:02:14.472Z,100749.66
2019-01-12T18:04:42.887Z,100756.17
2019-01-12T18:07:11.427Z,100753.56
2019-01-12T18:09:39.838Z,100750.97
2019-01-12T18:12:08.282Z,100755.73
2019-01-12T18:14:36.708Z,100767.42
2019-01-12T18:17:05.260Z,100767.00
2019-01-12T18:19:33.694Z,100768.73
2019-01-12T18:22:02.118Z,100778.30
2019-01-12T18:24:30.551Z,100776.55
2019-01-12T18:26:58.975Z,100782.16
2019-01-12T18:29:27.429Z,100786.94
2019-01-12T18:31:55.917Z,100780.03
2019-01-12T18:34:24.832Z,100769.19
2019-01-12T18:36:53.252Z,100780.44
2019-01-12T18:39:21.717Z,100781.74
2019-01-12T18:41:50.156Z,100776.53
2019-01-12T18:44:18.660Z,100766.16
2019-01-12T18:46:47.144Z,100768.32
2019-01-12T18:49:15.613Z,100769.63
2019-01-12T18:51:44.024Z,100760.94
2019-01-12T18:54:12.570Z,100775.26
2019-01-12T18:56:41.546Z,100760.52
2019-01-12T18:59:10.165Z,100759.24
2019-01-12T19:01:38.824Z,100761.84
2019-01-12T19:04:07.307Z,100761.39
2019-01-12T19:06:35.750Z,100757.48
2019-01-12T19:09:07.055Z,100760.53
2019-01-12T19:11:35.588Z,100768.77
2019-01-12T19:14:05.618Z,100760.53
2019-01-12T19:16:34.070Z,100766.62
2019-01-12T19:19:02.499Z,100767.45
2019-01-12T19:21:30.945Z,100762.70
2019-01-12T19:23:59.391Z,100762.71
2019-01-12T19:26:27.846Z,100764.44
2019-01-12T19:28:56.269Z,100756.20
2019-01-12T19:31:24.723Z,100755.73
2019-01-12T19:33:53.179Z,100750.97
2019-01-12T19:36:21.780Z,100756.59
2019-01-12T19:38:50.242Z,100753.56
2019-01-12T19:41:18.835Z,100758.34
2019-01-12T19:43:47.272Z,100750.09
2019-01-12T19:46:15.697Z,100746.20
2019-01-12T19:48:44.139Z,100749.23
2019-01-12T19:51:12.667Z,100741.86
2019-01-12T19:53:41.197Z,100736.69
2019-01-12T19:56:09.686Z,100746.65
2019-01-12T19:58:38.160Z,100749.70
2019-01-12T20:01:06.661Z,100739.72
2019-01-12T20:03:35.102Z,100748.82
2019-01-12T20:06:03.537Z,100746.22
2019-01-12T20:08:32.050Z,100739.73
2019-01-12T20:11:00.491Z,100734.52
2019-01-12T20:13:29.019Z,100737.12
2019-01-12T20:15:57.427Z,100729.34
2019-01-12T20:18:26.017Z,100722.38
2019-01-12T20:20:54.678Z,100730.62
2019-01-12T20:23:23.137Z,100728.90
2019-01-12T20:25:51.766Z,100727.16
2019-01-12T20:28:20.243Z,100733.66
2019-01-12T20:31:08.392Z,100727.61
2019-01-12T20:33:57.779Z,100738.86
2019-01-12T20:36:41.282Z,100728.03
2019-01-12T20:39:27.914Z,100731.91
2019-01-12T20:42:36.243Z,100727.58
2019-01-12T20:45:33.795Z,100734.11
2019-01-12T20:48:08.972Z,100736.27
2019-01-12T20:50:44.683Z,100726.72
2019-01-12T20:53:21.972Z,100729.75
2019-01-12T20:55:53.453Z,100734.95
2019-01-12T20:58:30.053Z,100729.32
2019-01-12T21:01:21.505Z,100722.36
2019-01-12T21:04:02.062Z,100722.81
2019-01-12T21:06:39.321Z,100722.83
2019-01-12T21:09:10.805Z,100719.34
2019-01-12T21:11:42.354Z,100720.65
2019-01-12T21:14:26.019Z,100721.53
2019-01-12T21:16:54.573Z,100724.56
2019-01-12T21:19:22.980Z,100724.11
2019-01-12T21:21:51.523Z,100724.53
2019-01-12T21:24:20.012Z,100713.68
2019-01-12T21:26:48.472Z,100710.66
2019-01-12T21:29:16.875Z,100715.44
2019-01-12T21:31:45.376Z,100712.81
2019-01-12T21:34:13.919Z,100720.62
2019-01-12T21:36:42.462Z,100708.03
2019-01-12T21:39:11.039Z,100710.65
2019-01-12T21:41:39.541Z,100715.42
2019-01-12T21:44:08.131Z,100701.56
2019-01-12T21:46:36.562Z,100702.41
2019-01-12T21:49:05.145Z,100708.47
2019-01-12T21:51:33.713Z,100704.16
2019-01-12T21:54:02.399Z,100710.23
2019-01-12T21:56:30.832Z,100707.17
2019-01-12T21:58:59.381Z,100700.27
2019-01-12T22:01:28.021Z,100705.02
2019-01-12T22:03:56.562Z,100699.37
2019-01-12T22:06:25.129Z,100700.69
2019-01-12T22:08:53.599Z,100706.75
2019-01-12T22:11:22.161Z,100705.45
2019-01-12T22:13:50.709Z,100714.13
2019-01-12T22:16:19.222Z,100708.05
2019-01-12T22:18:47.897Z,100694.59
2019-01-12T22:21:16.402Z,100694.16
2019-01-12T22:23:45.135Z,100704.55
2019-01-12T22:26:13.577Z,100710.19
2019-01-12T22:28:42.003Z,100704.56
2019-01-12T22:31:10.544Z,100696.30
2019-01-12T22:33:38.952Z,100698.03
2019-01-12T22:36:07.555Z,100701.06
2019-01-12T22:38:35.969Z,100697.61
2019-01-12T22:41:04.678Z,100696.73
2019-01-12T22:43:33.109Z,100704.09
2019-01-12T22:46:01.622Z,100694.98
2019-01-12T22:48:30.131Z,100694.99
2019-01-12T22:50:58.582Z,100695.42
2019-01-12T22:53:27.083Z,100695.82
2019-01-12T22:55:55.554Z,100687.14
2019-01-12T22:58:23.969Z,100692.80
2019-01-12T23:01:10.730Z,100687.14
2019-01-12T23:03:40.956Z,100689.31
2019-01-12T23:06:09.421Z,100691.03
2019-01-12T23:08:37.832Z,100677.16
2019-01-12T23:11:06.365Z,100677.16
2019-01-12T23:13:34.858Z,100683.64
2019-01-12T23:16:03.377Z,100690.19
2019-01-12T23:18:31.879Z,100682.80
2019-01-12T23:21:00.397Z,100671.09
2019-01-12T23:23:28.835Z,100682.80
2019-01-12T23:25:57.315Z,100671.52
2019-01-12T23:28:25.775Z,100673.27
2019-01-12T23:30:54.230Z,100668.91
2019-01-12T23:33:23.192Z,100666.77
2019-01-12T23:35:51.626Z,100668.48
2019-01-12T23:38:20.141Z,100668.04
2019-01-12T23:40:48.808Z,100666.29
2019-01-12T23:43:17.340Z,100666.28
2019-01-12T23:45:45.829Z,100658.05
2019-01-12T23:48:14.286Z,100667.58
2019-01-12T23:50:44.354Z,100666.28
2019-01-12T23:53:13.477Z,100663.70
2019-01-12T23:55:42.071Z,100671.06
2019-01-12T23:58:10.605Z,100664.55
